Time;durP1;ratioP1;P1;durP2;ratioP2;P2;SDS_P1;SDS_P2;PMS_P1;PMS_P2;Temp;Humidity;BMP_temperature;BMP_pressure;BME280_temperature;BME280_humidity;BME280_pressure;Samples;Min_cycle;Max_cycle;Signal;HPM_P1;HPM_P2
2023/08/25 00:01:18;;;;;;;17.10;14.87;;;24.00;95.50;;;24.69;61.41;95012.53;5068508;28;20477;-60
2023/08/25 00:03:45;;;;;;;17.17;14.13;;;24.10;95.60;;;24.67;61.54;95007.38;5070281;28;20521;-57
2023/08/25 00:06:12;;;;;;;17.47;14.57;;;24.10;95.80;;;24.66;60.72;95011.13;5078207;28;20511;-56
2023/08/25 00:08:39;;;;;;;18.03;13.77;;;24.00;95.80;;;24.64;61.27;95015.06;5069257;28;20520;-55
2023/08/25 00:11:06;;;;;;;16.87;15.10;;;24.00;95.80;;;24.61;61.31;95015.53;5068372;28;20441;-61
2023/08/25 00:13:35;;;;;;;16.90;15.30;;;24.00;95.80;;;24.58;61.80;95007.91;5068754;28;20540;-61
2023/08/25 00:16:04;;;;;;;19.30;14.60;;;24.00;96.00;;;24.55;61.68;95001.06;5074282;28;20453;-61
2023/08/25 00:18:33;;;;;;;17.37;14.83;;;23.90;95.90;;;24.53;61.02;94995.91;5068593;28;20572;-58
2023/08/25 00:21:00;;;;;;;17.73;15.40;;;23.90;96.00;;;24.51;61.93;94994.50;5072434;28;20556;-61
2023/08/25 00:23:27;;;;;;;18.10;14.23;;;23.90;96.20;;;24.49;61.61;94996.56;5066755;28;21014;-57
2023/08/25 00:25:55;;;;;;;23.80;14.40;;;23.90;96.30;;;24.47;61.20;94995.97;5073563;28;20465;-60
2023/08/25 00:28:22;;;;;;;19.77;14.73;;;23.80;96.20;;;24.44;61.45;95001.81;5069683;28;20886;-56
2023/08/25 00:30:50;;;;;;;22.73;15.90;;;23.80;96.40;;;24.41;62.04;95000.38;5070226;28;20527;-57
2023/08/25 00:33:17;;;;;;;17.83;15.20;;;23.80;96.60;;;24.39;61.85;95015.09;5072717;28;20478;-59
2023/08/25 00:35:46;;;;;;;20.77;15.60;;;23.80;96.60;;;24.37;62.51;95009.94;5068010;28;20529;-57
2023/08/25 00:38:13;;;;;;;17.60;15.70;;;23.70;96.70;;;24.36;62.03;95013.69;5068398;28;20471;-56
2023/08/25 00:40:40;;;;;;;18.30;15.97;;;23.70;96.80;;;24.36;61.87;95010.19;5067093;28;20493;-57
2023/08/25 00:43:07;;;;;;;21.50;15.40;;;23.70;96.60;;;24.28;62.11;95011.28;5069692;28;21461;-61
2023/08/25 00:45:38;;;;;;;18.73;14.63;;;23.70;96.70;;;24.25;62.07;95009.84;5073197;28;20450;-60
2023/08/25 00:48:07;;;;;;;22.60;15.27;;;23.70;96.80;;;24.22;62.66;95006.78;5068645;28;20470;-57
2023/08/25 00:50:35;;;;;;;18.50;14.97;;;23.70;97.00;;;24.21;62.18;95010.53;5069288;28;20468;-60
2023/08/25 00:53:04;;;;;;;19.20;15.90;;;23.60;97.10;;;24.20;62.21;95012.41;5072777;28;20478;-61
2023/08/25 00:55:32;;;;;;;21.70;16.30;;;23.60;97.20;;;24.19;62.11;95008.06;5068176;28;20454;-57
2023/08/25 00:57:59;;;;;;;18.57;15.90;;;23.60;97.20;;;24.15;62.28;95010.38;5073274;28;20512;-61
2023/08/25 01:00:26;;;;;;;26.93;15.30;;;23.60;97.30;;;24.15;62.40;95012.22;5069425;28;20529;-58
2023/08/25 01:02:54;;;;;;;16.23;14.57;;;23.60;97.40;;;24.13;62.49;95014.31;5073405;28;20466;-60
2023/08/25 01:05:21;;;;;;;16.33;14.67;;;23.50;97.40;;;24.12;62.45;95013.50;5073632;28;20486;-59
2023/08/25 01:07:49;;;;;;;19.77;15.30;;;23.50;97.50;;;24.12;62.47;95018.03;5070906;28;20446;-60
2023/08/25 01:10:19;;;;;;;17.87;15.63;;;23.50;97.40;;;24.10;62.51;95022.81;5068960;28;20447;-57
2023/08/25 01:12:54;;;;;;;16.23;14.53;;;23.50;97.60;;;24.07;63.17;95015.19;5076325;28;20452;-57
2023/08/25 01:15:27;;;;;;;24.70;14.97;;;23.50;97.60;;;24.05;62.81;95015.41;5070454;28;20979;-57
2023/08/25 01:17:59;;;;;;;16.23;14.63;;;23.50;97.70;;;24.04;63.15;95021.00;5074428;28;20537;-56
2023/08/25 01:20:26;;;;;;;16.40;14.80;;;23.40;97.70;;;24.03;62.87;95016.66;5072034;28;20450;-60
2023/08/25 01:23:15;;;;;;;16.83;15.23;;;23.40;97.90;;;24.03;63.35;95014.81;5075555;28;20451;-60
2023/08/25 01:25:44;;;;;;;16.50;13.60;;;23.40;97.90;;;24.03;63.46;95019.34;5074781;28;20864;-57
2023/08/25 01:28:11;;;;;;;20.00;16.17;;;23.40;97.90;;;24.02;62.88;95015.03;5075172;28;21034;-61
2023/08/25 01:30:39;;;;;;;17.93;15.43;;;23.40;98.00;;;24.02;63.52;95012.34;5077619;28;20972;-57
2023/08/25 01:33:06;;;;;;;18.37;16.40;;;23.40;98.00;;;24.00;62.82;95012.56;5071790;28;20477;-61
2023/08/25 01:35:45;;;;;;;18.67;16.33;;;23.40;98.00;;;23.98;63.04;95007.41;5077665;28;20456;-57
2023/08/25 01:38:16;;;;;;;17.77;15.97;;;23.40;98.10;;;23.97;63.50;95000.38;5075158;28;20466;-57
2023/08/25 01:40:45;;;;;;;17.20;15.47;;;23.40;98.20;;;23.96;63.12;95006.78;5073770;28;20515;-61
2023/08/25 01:43:14;;;;;;;17.10;14.70;;;23.30;98.20;;;23.96;63.65;95004.13;5068260;28;20543;-55
2023/08/25 01:45:41;;;;;;;19.90;14.77;;;23.40;98.20;;;23.93;63.60;95004.56;5073094;28;20461;-55
2023/08/25 01:48:09;;;;;;;18.20;14.20;;;23.30;98.20;;;23.92;63.18;95000.25;5073603;28;20837;-60
2023/08/25 01:50:36;;;;;;;16.60;14.90;;;23.30;98.20;;;23.90;63.53;94996.94;5075456;28;20462;-56
2023/08/25 01:53:03;;;;;;;21.33;15.60;;;23.30;98.20;;;23.88;63.18;94996.34;5075591;28;20902;-56
2023/08/25 01:55:32;;;;;;;17.33;15.50;;;23.30;98.20;;;23.86;62.87;94997.59;5077657;28;20875;-56
2023/08/25 01:58:02;;;;;;;17.63;15.13;;;23.30;98.20;;;23.85;63.82;95001.34;5075929;28;20530;-60
2023/08/25 02:00:30;;;;;;;16.00;13.77;;;23.20;98.10;;;23.83;63.10;94998.84;5077815;28;21055;-60
2023/08/25 02:02:57;;;;;;;14.80;13.40;;;23.20;98.10;;;23.79;63.90;95001.13;5077244;28;20461;-59
2023/08/25 02:05:24;;;;;;;15.80;14.20;;;23.20;98.30;;;23.79;63.71;94997.63;5080638;28;20499;-61
2023/08/25 02:07:51;;;;;;;16.23;14.53;;;23.20;98.30;;;23.77;63.82;94994.34;5072318;28;20449;-60
2023/08/25 02:10:19;;;;;;;16.03;13.53;;;23.20;98.40;;;23.75;63.93;94993.72;5072809;28;20454;-60
2023/08/25 02:12:46;;;;;;;16.00;14.40;;;23.20;98.50;;;23.74;63.26;94995.59;5077284;28;20453;-57
2023/08/25 02:15:15;;;;;;;17.80;14.07;;;23.20;98.50;;;23.74;63.49;95005.53;5070847;28;20462;-60
2023/08/25 02:17:42;;;;;;;19.00;13.63;;;23.10;98.60;;;23.74;63.48;95010.91;5076018;28;20468;-60
2023/08/25 02:20:12;;;;;;;18.03;15.40;;;23.10;98.60;;;23.73;63.56;95003.88;5069763;28;20997;-60
2023/08/25 02:22:39;;;;;;;16.97;15.27;;;23.10;98.70;;;23.74;64.30;95009.03;5071724;28;20442;-61
2023/08/25 02:25:08;;;;;;;17.00;15.30;;;23.10;98.70;;;23.73;64.17;95009.25;5068340;28;21530;-60
2023/08/25 02:27:35;;;;;;;16.63;13.27;;;23.10;98.80;;;23.72;63.71;95027.22;5073633;28;20588;-57
2023/08/25 02:30:03;;;;;;;21.30;15.53;;;23.10;98.80;;;23.71;64.41;95019.38;5074046;28;20531;-61
2023/08/25 02:32:32;;;;;;;19.37;14.80;;;23.10;98.90;;;23.70;63.58;95017.72;5071929;28;20504;-61
2023/08/25 02:35:00;;;;;;;17.53;15.60;;;23.10;98.90;;;23.68;63.64;95020.63;5075088;28;20474;-56
2023/08/25 02:37:27;;;;;;;25.97;15.30;;;23.10;98.80;;;23.65;63.85;95023.75;5070800;28;20454;-59
2023/08/25 02:39:54;;;;;;;18.53;13.70;;;23.10;99.00;;;23.63;64.02;95025.84;5072637;28;21007;-61
2023/08/25 02:42:21;;;;;;;21.13;14.83;;;23.00;98.90;;;23.60;63.85;95024.41;5074252;28;20465;-57
2023/08/25 02:44:49;;;;;;;20.87;15.27;;;23.00;99.00;;;23.58;64.45;95021.13;5072006;28;20501;-56
2023/08/25 02:47:16;;;;;;;18.00;14.17;;;23.00;99.20;;;23.56;64.85;95019.69;5075275;28;20457;-59
2023/08/25 02:49:44;;;;;;;16.63;14.93;;;23.00;99.30;;;23.54;64.78;95017.22;5071097;28;20474;-60
2023/08/25 02:52:12;;;;;;;17.53;15.43;;;23.00;99.40;;;23.54;64.49;95016.41;5076923;28;20453;-61
2023/08/25 02:54:39;;;;;;;21.73;15.03;;;22.90;99.30;;;23.51;65.09;95023.03;5070206;28;20466;-61
2023/08/25 02:57:06;;;;;;;20.80;16.10;;;22.90;99.50;;;23.51;64.28;95017.66;5071760;28;21028;-58
2023/08/25 02:59:33;;;;;;;19.00;15.60;;;22.90;99.40;;;23.50;64.34;95025.94;5075504;28;20466;-57
2023/08/25 03:02:01;;;;;;;15.87;14.17;;;22.90;99.40;;;23.50;64.13;95025.94;5071897;28;20454;-62
2023/08/25 03:04:28;;;;;;;19.83;15.43;;;22.90;99.40;;;23.48;63.99;95028.84;5074400;28;21016;-56
2023/08/25 03:06:56;;;;;;;20.13;16.03;;;22.90;99.30;;;23.47;64.53;95032.56;5081051;28;20454;-60
2023/08/25 03:09:24;;;;;;;20.37;14.17;;;22.90;99.30;;;23.44;64.29;95033.00;5071862;28;20469;-61
2023/08/25 03:11:51;;;;;;;22.00;15.80;;;22.80;99.30;;;23.41;64.31;95039.63;5071769;28;20548;-61
2023/08/25 03:14:19;;;;;;;16.20;14.00;;;22.90;99.30;;;23.38;64.30;95033.88;5072898;28;20469;-57
2023/08/25 03:16:46;;;;;;;23.37;15.13;;;22.80;99.30;;;23.36;64.74;95041.28;5073481;28;20541;-56
2023/08/25 03:19:13;;;;;;;21.23;14.43;;;22.80;99.50;;;23.30;64.57;95042.16;5071649;28;20548;-57
2023/08/25 03:21:40;;;;;;;16.13;14.53;;;22.70;99.70;;;23.19;64.63;95041.81;5070601;28;20482;-57
2023/08/25 03:24:09;;;;;;;16.57;14.67;;;22.70;99.80;;;23.11;64.87;95044.72;5070276;28;20496;-58
2023/08/25 03:26:36;;;;;;;20.97;14.70;;;22.60;99.70;;;23.05;65.71;95048.22;5071054;28;20447;-61
2023/08/25 03:29:04;;;;;;;19.43;14.50;;;22.60;99.90;;;22.97;65.15;95056.53;5071628;28;20507;-57
2023/08/25 03:31:31;;;;;;;16.53;14.80;;;22.50;99.90;;;22.90;65.73;95062.75;5070944;28;20455;-60
2023/08/25 03:33:58;;;;;;;15.23;13.70;;;22.40;99.90;;;22.82;65.80;95062.97;5075984;28;20842;-60
2023/08/25 03:36:27;;;;;;;22.63;13.80;;;22.30;99.90;;;22.77;66.25;95067.31;5066683;28;20463;-61
2023/08/25 03:38:54;;;;;;;18.77;14.80;;;22.30;99.90;;;22.74;66.84;95071.25;5060086;28;20481;-57
2023/08/25 03:41:23;;;;;;;17.30;15.60;;;22.20;99.90;;;22.73;66.02;95064.25;5069842;28;20462;-61
2023/08/25 03:43:50;;;;;;;15.87;14.17;;;22.20;99.90;;;22.74;66.74;95060.50;5070969;28;21030;-60
2023/08/25 03:46:17;;;;;;;17.30;15.20;;;22.20;99.90;;;22.75;66.27;95056.81;5068809;28;20459;-59
2023/08/25 03:48:44;;;;;;;19.00;15.53;;;22.20;99.90;;;22.76;66.52;95053.09;5071319;28;20478;-56
2023/08/25 03:51:12;;;;;;;16.93;15.03;;;22.20;99.90;;;22.79;66.78;95049.16;5067121;28;20458;-57
2023/08/25 03:53:39;;;;;;;17.13;15.37;;;22.20;99.90;;;22.80;66.30;95051.63;5071462;28;20868;-61
2023/08/25 03:56:07;;;;;;;24.90;15.40;;;22.30;99.90;;;22.83;66.57;95059.25;5070067;28;20461;-61
2023/08/25 03:58:35;;;;;;;17.00;14.90;;;22.30;99.90;;;22.86;66.48;95064.19;5071285;28;20998;-59
2023/08/25 04:01:03;;;;;;;23.33;15.27;;;22.30;99.90;;;22.87;66.70;95065.84;5070115;28;20484;-59
2023/08/25 04:03:30;;;;;;;23.50;17.37;;;22.30;99.90;;;22.88;66.86;95070.19;5066955;28;20466;-57
2023/08/25 04:05:57;;;;;;;33.50;15.80;;;22.30;99.90;;;22.91;66.60;95067.09;5073143;28;20498;-58
2023/08/25 04:08:25;;;;;;;27.70;15.90;;;22.30;99.90;;;22.93;66.21;95069.56;5069207;28;20913;-60
2023/08/25 04:10:52;;;;;;;23.77;16.70;;;22.40;99.90;;;22.92;66.45;95071.38;5072967;28;20817;-56
2023/08/25 04:13:20;;;;;;;22.23;16.33;;;22.30;99.90;;;22.91;66.52;95063.56;5074261;28;20553;-57
2023/08/25 04:15:56;;;;;;;28.03;14.80;;;22.40;99.90;;;22.88;66.47;95067.50;5069905;28;20465;-60
2023/08/25 04:18:23;;;;;;;18.17;15.70;;;22.40;99.90;;;22.86;65.69;95069.56;5068911;28;20597;-59
2023/08/25 04:20:51;;;;;;;23.27;15.77;;;22.30;99.90;;;22.83;66.27;95069.97;5070593;28;20512;-59
2023/08/25 04:23:18;;;;;;;18.40;15.20;;;22.30;99.90;;;22.84;65.61;95071.63;5066671;28;20990;-59
2023/08/25 04:25:45;;;;;;;19.20;15.30;;;22.30;99.90;;;22.85;66.53;95078.66;5073037;28;20494;-58
2023/08/25 04:28:12;;;;;;;18.93;14.27;;;22.30;99.90;;;22.88;66.36;95083.59;5070831;28;20965;-60
2023/08/25 04:30:40;;;;;;;18.87;13.57;;;22.30;99.90;;;22.93;66.39;95091.00;5070949;28;20458;-57
2023/08/25 04:33:08;;;;;;;17.37;14.20;;;22.40;99.90;;;22.99;65.45;95083.97;5070528;28;20465;-60
2023/08/25 04:35:36;;;;;;;22.77;13.97;;;22.40;99.90;;;23.02;66.29;95088.91;5065385;28;20463;-57
2023/08/25 04:38:04;;;;;;;25.03;16.40;;;22.40;99.90;;;23.05;66.03;95093.84;5072285;28;20991;-60
2023/08/25 04:40:31;;;;;;;31.63;14.77;;;22.50;99.90;;;23.06;65.69;95098.19;5068338;28;20451;-58
2023/08/25 04:42:59;;;;;;;20.17;16.10;;;22.50;99.90;;;23.02;66.15;95099.63;5072432;28;21063;-55
2023/08/25 04:45:26;;;;;;;17.40;15.63;;;22.50;99.90;;;22.99;65.84;95102.72;5068642;28;20489;-59
2023/08/25 04:47:54;;;;;;;27.83;15.73;;;22.40;99.90;;;22.97;66.40;95100.25;5066255;28;20501;-57
2023/08/25 04:50:22;;;;;;;20.53;14.97;;;22.40;99.90;;;22.97;65.68;95100.25;5067571;28;20454;-57
2023/08/25 04:52:50;;;;;;;23.60;16.60;;;22.40;99.90;;;22.97;66.39;95099.44;5071758;28;20457;-58
2023/08/25 04:55:18;;;;;;;27.33;16.07;;;22.40;99.90;;;22.96;66.14;95105.84;5069628;28;20834;-56
2023/08/25 04:57:45;;;;;;;17.10;14.63;;;22.40;99.90;;;22.98;65.64;95101.09;5071114;28;20445;-56
2023/08/25 05:00:14;;;;;;;21.53;15.73;;;22.40;99.90;;;22.97;66.25;95104.81;5073118;28;20458;-59
2023/08/25 05:02:41;;;;;;;24.13;16.77;;;22.40;99.90;;;22.99;66.35;95108.09;5068902;28;20454;-60
2023/08/25 05:05:11;;;;;;;19.83;16.53;;;22.40;99.90;;;23.01;66.17;95108.72;5075974;28;20494;-57
2023/08/25 05:07:40;;;;;;;26.47;17.40;;;22.40;99.90;;;23.03;66.62;95107.47;5073410;28;20464;-57
2023/08/25 05:10:09;;;;;;;21.80;17.77;;;22.50;99.90;;;23.03;66.12;95112.84;5065662;28;20481;-56
2023/08/25 05:12:36;;;;;;;29.53;16.50;;;22.50;99.90;;;23.06;66.65;95123.13;5075114;28;20468;-55
2023/08/25 05:15:04;;;;;;;25.67;18.13;;;22.50;99.90;;;23.08;66.26;95121.13;5068608;28;20465;-56
2023/08/25 05:17:31;;;;;;;24.43;16.67;;;22.50;99.90;;;23.13;65.84;95125.84;5071302;28;20785;-57
2023/08/25 05:19:58;;;;;;;25.60;18.00;;;22.60;99.90;;;23.19;66.19;95127.69;5069852;28;20596;-58
2023/08/25 05:22:26;;;;;;;29.70;17.60;;;22.60;99.90;;;23.28;65.85;95122.88;5065857;28;20461;-59
2023/08/25 05:24:54;;;;;;;30.30;16.90;;;22.70;99.90;;;23.34;66.18;95124.72;5067141;28;20810;-60
2023/08/25 05:27:22;;;;;;;23.33;19.13;;;22.70;99.90;;;23.41;66.00;95120.16;5069912;28;20828;-61
2023/08/25 05:29:49;;;;;;;27.53;18.10;;;22.80;99.90;;;23.50;65.46;95123.44;5070483;28;20492;-57
2023/08/25 05:32:16;;;;;;;22.77;17.93;;;22.90;99.90;;;23.60;65.38;95121.09;5069325;28;21062;-56
2023/08/25 05:34:43;;;;;;;21.27;17.00;;;23.00;99.90;;;23.73;65.20;95124.72;5071685;28;20474;-58
2023/08/25 05:37:11;;;;;;;30.03;18.80;;;23.10;99.90;;;23.88;64.51;95127.97;5070285;28;20858;-56
2023/08/25 05:39:38;;;;;;;28.90;18.40;;;23.20;99.90;;;24.03;64.30;95125.00;5069433;28;20477;-56
2023/08/25 05:42:08;;;;;;;20.47;17.43;;;23.40;99.90;;;24.20;63.63;95122.59;5070527;28;20454;-58
2023/08/25 05:44:35;;;;;;;22.50;19.07;;;23.50;99.90;;;24.37;63.59;95124.72;5069370;28;20488;-60
2023/08/25 05:47:03;;;;;;;27.10;18.90;;;23.70;99.90;;;24.52;62.86;95111.75;5070616;28;20934;-60
2023/08/25 05:49:30;;;;;;;23.50;16.97;;;23.80;99.90;;;24.68;62.98;95108.53;5072285;28;20470;-59
2023/08/25 05:51:57;;;;;;;21.27;16.57;;;24.00;99.90;;;24.91;62.42;95111.63;5072311;28;20554;-56
2023/08/25 05:54:25;;;;;;;19.23;16.67;;;24.10;99.80;;;25.14;62.60;95116.34;5068747;28;20473;-60
2023/08/25 05:56:53;;;;;;;27.10;16.87;;;24.40;99.60;;;25.39;61.88;95111.72;5073973;28;21545;-59
2023/08/25 05:59:22;;;;;;;25.87;17.00;;;24.60;99.30;;;25.67;61.87;95117.56;5070589;28;20991;-60
2023/08/25 06:01:49;;;;;;;27.30;16.80;;;24.90;99.00;;;25.93;61.11;95114.50;5072248;28;20984;-59
2023/08/25 06:04:16;;;;;;;22.63;17.53;;;25.10;98.60;;;26.20;60.47;95113.31;5077200;28;20482;-59
2023/08/25 06:06:44;;;;;;;21.20;17.13;;;25.40;98.20;;;26.39;59.95;95104.06;5076253;28;21044;-56
2023/08/25 06:09:11;;;;;;;23.00;16.67;;;25.60;97.70;;;26.64;59.75;95103.00;5071240;28;20477;-59
2023/08/25 06:11:38;;;;;;;32.63;16.40;;;25.90;97.40;;;26.86;59.00;95102.44;5073459;28;20946;-60
2023/08/25 06:14:05;;;;;;;21.00;15.30;;;26.10;96.90;;;27.07;58.31;95107.22;5072803;28;20478;-58
2023/08/25 06:16:34;;;;;;;20.10;15.13;;;26.30;96.60;;;27.30;57.79;95097.44;5071777;28;20465;-58
2023/08/25 06:19:01;;;;;;;20.50;16.60;;;26.50;96.00;;;27.45;57.52;95100.47;5076749;28;20469;-56
2023/08/25 06:21:30;;;;;;;20.30;14.93;;;26.70;95.50;;;27.66;57.58;95090.06;5073512;28;20453;-60
2023/08/25 06:23:57;;;;;;;19.90;14.30;;;26.80;95.30;;;27.89;56.85;95098.03;5073485;28;20477;-59
2023/08/25 06:26:24;;;;;;;23.37;15.10;;;27.10;94.90;;;28.14;56.14;95096.88;5074570;28;20799;-60
2023/08/25 06:28:53;;;;;;;19.93;14.63;;;27.30;94.30;;;28.39;55.59;95095.66;5071359;28;20484;-60
2023/08/25 06:31:20;;;;;;;21.90;16.40;;;27.50;93.90;;;28.64;55.50;95097.16;5072463;28;20458;-60
2023/08/25 06:33:49;;;;;;;22.20;15.30;;;27.80;93.40;;;28.88;54.43;95089.66;5075529;28;20547;-60
2023/08/25 06:36:16;;;;;;;22.80;15.83;;;28.00;92.80;;;29.10;54.35;95092.38;5071602;28;20908;-56
2023/08/25 06:38:43;;;;;;;18.23;15.40;;;28.30;92.10;;;29.29;53.38;95099.13;5080548;28;20474;-59
2023/08/25 06:41:11;;;;;;;25.30;14.43;;;28.50;91.60;;;29.50;53.84;95094.78;5071168;28;20477;-57
2023/08/25 06:43:38;;;;;;;17.67;14.00;;;28.70;91.30;;;29.72;53.45;95093.13;5070470;28;20490;-60
2023/08/25 06:46:05;;;;;;;19.43;14.60;;;28.90;91.10;;;29.94;53.02;95093.91;5070673;28;20441;-58
2023/08/25 06:48:32;;;;;;;19.70;14.33;;;29.10;90.20;;;30.16;51.91;95102.00;5074845;28;20232;-56
2023/08/25 06:51:01;;;;;;;22.53;13.13;;;29.30;89.10;;;30.39;51.93;95100.84;5066867;28;20204;-57
2023/08/25 06:53:28;;;;;;;18.67;15.20;;;29.60;88.70;;;30.61;51.61;95099.94;5075087;28;20216;-60
2023/08/25 06:55:56;;;;;;;20.70;15.33;;;29.80;87.10;;;30.82;50.62;95108.22;5073817;28;20204;-56
2023/08/25 06:58:23;;;;;;;18.80;14.13;;;30.00;86.10;;;31.01;50.42;95104.03;5070673;28;20220;-60
2023/08/25 07:00:51;;;;;;;16.37;13.80;;;30.20;85.20;;;31.25;49.91;95098.19;5074117;28;20200;-59
2023/08/25 07:03:18;;;;;;;18.83;13.83;;;30.40;84.10;;;31.49;49.36;95103.16;5069295;28;20222;-60
2023/08/25 07:05:46;;;;;;;19.83;14.02;;;30.60;83.10;;;31.73;49.01;95103.53;5082066;28;20249;-60
2023/08/25 07:08:15;;;;;;;26.47;12.50;;;30.90;82.20;;;31.96;48.62;95099.50;5071819;28;20223;-60
2023/08/25 07:10:46;;;;;;;18.42;12.48;;;31.10;81.00;;;32.21;47.76;95100.66;5071476;28;20200;-59
2023/08/25 07:13:13;;;;;;;15.25;13.73;;;31.30;80.10;;;32.42;47.66;95096.84;5068399;28;20220;-60
2023/08/25 07:15:40;;;;;;;16.77;12.55;;;31.50;79.10;;;32.62;47.41;95098.75;5073404;28;20211;-60
2023/08/25 07:18:08;;;;;;;13.35;10.93;;;31.80;78.00;;;32.83;46.66;95107.75;5066508;28;20227;-60
2023/08/25 07:20:35;;;;;;;11.85;10.63;;;32.00;76.10;;;33.04;46.50;95102.25;5072285;28;20207;-59
2023/08/25 07:23:02;;;;;;;17.13;12.07;;;32.10;76.10;;;33.29;46.34;95108.75;5070066;28;20716;-56
2023/08/25 07:25:31;;;;;;;24.15;12.75;;;32.40;75.00;;;33.53;45.20;95107.03;5073188;28;20228;-56
2023/08/25 07:27:58;;;;;;;15.38;11.50;;;32.60;74.00;;;33.76;45.37;95111.03;5070732;28;20585;-56
2023/08/25 07:30:25;;;;;;;20.77;12.95;;;32.80;73.30;;;34.01;44.33;95113.91;5074269;28;20196;-56
2023/08/25 07:32:53;;;;;;;21.27;12.40;;;33.10;72.20;;;34.21;44.23;95116.50;5070026;28;20200;-58
2023/08/25 07:35:20;;;;;;;19.05;12.77;;;33.30;71.10;;;34.36;44.05;95115.59;5071675;28;20707;-60
2023/08/25 07:37:47;;;;;;;13.85;12.13;;;33.50;70.30;;;34.52;43.85;95124.50;5068703;28;20236;-60
2023/08/25 07:40:14;;;;;;;12.52;9.93;;;33.60;69.50;;;34.75;43.37;95122.09;5074057;28;20210;-56
2023/08/25 07:42:43;;;;;;;11.68;10.60;;;33.80;68.80;;;34.97;43.17;95121.66;5064457;28;20200;-61
2023/08/25 07:45:11;;;;;;;16.17;10.88;;;34.10;68.10;;;35.24;41.60;95123.03;5074127;28;20207;-58
2023/08/25 07:47:38;;;;;;;18.73;11.90;;;34.30;67.70;;;35.52;41.71;95115.88;5069550;28;20269;-60
2023/08/25 07:50:07;;;;;;;12.20;11.02;;;34.60;66.00;;;35.64;40.30;95112.72;5069893;28;20204;-60
2023/08/25 07:52:34;;;;;;;12.63;10.50;;;34.80;64.20;;;35.62;40.85;95114.94;5068088;28;20768;-60
2023/08/25 07:55:02;;;;;;;12.93;10.63;;;34.80;64.30;;;35.78;40.81;95110.13;5069934;28;20220;-57
2023/08/25 07:57:29;;;;;;;18.85;9.95;;;34.90;63.90;;;36.00;40.72;95109.53;5069318;28;20204;-59
2023/08/25 07:59:57;;;;;;;16.08;10.95;;;35.10;63.60;;;36.28;40.26;95115.97;5069925;28;20224;-61
2023/08/25 08:02:25;;;;;;;22.95;9.90;;;35.30;62.60;;;36.60;39.71;95112.47;5074988;28;20302;-60
2023/08/25 08:04:52;;;;;;;12.00;9.70;;;35.60;61.90;;;36.92;39.16;95110.84;5067603;28;20293;-61
2023/08/25 08:07:19;;;;;;;14.10;9.57;;;36.00;60.70;;;37.28;38.50;95103.91;5072827;28;20235;-58
2023/08/25 08:09:47;;;;;;;12.30;9.50;;;36.40;59.90;;;37.63;38.06;95107.03;5072072;28;20246;-60
2023/08/25 08:12:14;;;;;;;12.27;9.30;;;36.80;59.00;;;37.99;37.45;95112.63;5068577;28;20215;-56
2023/08/25 08:14:41;;;;;;;9.50;8.60;;;37.20;58.30;;;38.36;36.71;95101.63;5073822;28;20296;-59
2023/08/25 08:17:10;;;;;;;16.80;8.38;;;37.60;57.20;;;38.69;36.11;95104.16;5068490;28;20201;-58
2023/08/25 08:19:37;;;;;;;8.07;7.25;;;37.90;55.80;;;39.01;35.14;95094.81;5073726;28;20254;-58
2023/08/25 08:22:05;;;;;;;15.55;9.15;;;38.30;54.80;;;39.30;34.64;95095.44;5067443;28;20200;-56
2023/08/25 08:24:32;;;;;;;10.20;8.77;;;38.70;53.70;;;39.41;33.96;95097.59;5072395;28;20223;-61
2023/08/25 08:26:59;;;;;;;17.33;9.70;;;38.90;53.20;;;39.43;34.13;95092.56;5070340;28;20272;-57
2023/08/25 08:29:27;;;;;;;13.85;7.63;;;39.00;52.20;;;39.51;33.51;95093.72;5071236;28;20661;-58
2023/08/25 08:31:55;;;;;;;10.32;7.75;;;39.10;51.00;;;39.53;33.08;95096.16;5073107;28;20204;-60
2023/08/25 08:34:23;;;;;;;8.50;7.25;;;39.10;50.80;;;39.40;32.76;95090.47;5067642;28;20231;-62
2023/08/25 08:36:51;;;;;;;15.52;10.13;;;39.00;50.70;;;39.35;32.68;95093.38;5068787;28;20622;-57
2023/08/25 08:39:18;;;;;;;16.00;7.28;;;38.90;50.40;;;39.37;32.22;95085.59;5067938;28;20231;-55
2023/08/25 08:41:45;;;;;;;6.97;6.28;;;38.80;50.20;;;39.51;31.93;95090.19;5069853;28;20689;-60
2023/08/25 08:44:13;;;;;;;6.78;6.07;;;38.80;49.80;;;39.65;31.83;95077.13;5070814;28;20223;-56
2023/08/25 08:46:40;;;;;;;8.77;6.35;;;38.90;49.30;;;39.83;31.68;95080.69;5068731;28;20380;-58
2023/08/25 08:49:07;;;;;;;17.00;6.78;;;39.00;48.90;;;39.97;31.29;95081.38;5072532;28;20242;-60
2023/08/25 08:51:36;;;;;;;6.60;5.95;;;39.10;48.40;;;40.08;30.69;95075.56;5073075;28;20200;-58
2023/08/25 08:54:06;;;;;;;10.25;6.97;;;39.20;48.00;;;40.12;30.36;95071.84;5071707;28;20230;-61
2023/08/25 08:56:34;;;;;;;8.00;6.97;;;39.30;47.60;;;40.22;30.21;95070.72;5067629;28;20226;-61
2023/08/25 08:59:02;;;;;;;7.32;6.72;;;39.40;47.10;;;40.33;29.99;95072.00;5071653;28;20228;-57
2023/08/25 09:01:30;;;;;;;7.07;6.43;;;39.40;46.90;;;40.43;29.84;95070.06;5072461;28;20204;-59
2023/08/25 09:04:00;;;;;;;12.10;7.88;;;39.60;47.20;;;40.50;30.57;95054.66;5068680;28;20215;-61
2023/08/25 09:06:28;;;;;;;8.90;6.93;;;39.60;46.80;;;40.41;29.33;95056.59;5072076;28;20211;-60
2023/08/25 09:08:56;;;;;;;10.77;7.07;;;39.60;45.90;;;40.03;28.99;95053.69;5067245;28;20243;-58
2023/08/25 09:11:24;;;;;;;6.93;6.22;;;39.30;44.10;;;39.48;29.77;95058.59;5066550;28;20258;-57
2023/08/25 09:13:57;;;;;;;10.82;7.00;;;38.90;45.00;;;39.14;29.58;95054.59;5070397;28;20313;-56
2023/08/25 09:16:24;;;;;;;9.30;6.78;;;38.50;45.90;;;39.11;30.13;95055.22;5073338;28;20278;-61
2023/08/25 09:18:52;;;;;;;13.30;7.43;;;38.30;46.70;;;39.15;29.96;95055.38;5068744;28;20274;-61
2023/08/25 09:21:21;;;;;;;6.30;5.75;;;38.30;46.20;;;39.15;29.84;95049.88;5067452;28;20656;-60
2023/08/25 09:23:58;;;;;;;13.27;6.28;;;38.30;45.60;;;39.14;29.39;95045.53;5067022;28;20307;-57
2023/08/25 09:26:25;;;;;;;8.95;6.35;;;38.20;45.50;;;39.17;29.97;95045.69;5068673;28;20219;-61
2023/08/25 09:28:54;;;;;;;6.53;5.93;;;38.30;45.70;;;39.12;29.87;95045.84;5069328;28;20773;-57
2023/08/25 09:31:22;;;;;;;9.43;5.75;;;38.30;44.80;;;39.12;29.38;95039.50;5067928;28;20279;-59
2023/08/25 09:33:51;;;;;;;11.05;6.57;;;38.30;44.70;;;39.14;29.53;95038.09;5072787;28;20222;-57
2023/08/25 09:36:23;;;;;;;10.90;5.55;;;38.20;44.70;;;39.16;28.90;95030.31;5071931;28;20204;-59
2023/08/25 09:38:53;;;;;;;9.43;5.10;;;38.20;44.50;;;39.30;28.37;95032.13;5070706;28;20277;-60
2023/08/25 09:41:26;;;;;;;6.47;5.75;;;38.30;44.50;;;39.57;28.97;95029.16;5071935;28;20196;-60
2023/08/25 09:43:58;;;;;;;7.65;5.38;;;38.50;44.70;;;39.86;28.25;95024.97;5076484;28;20220;-61
2023/08/25 09:46:34;;;;;;;6.50;4.75;;;38.80;44.30;;;40.12;27.86;95026.94;5071896;28;20224;-61
2023/08/25 09:49:02;;;;;;;5.82;3.83;;;39.00;43.70;;;40.30;27.34;95012.00;5077358;28;20247;-60
2023/08/25 09:54:20;;;;;;;5.43;4.70;;;39.40;41.80;;;40.35;26.62;95013.00;5070995;28;20232;-70
2023/08/25 09:56:53;;;;;;;7.50;5.07;;;39.40;41.10;;;40.19;26.17;95007.97;5067589;28;20196;-65
2023/08/25 09:59:22;;;;;;;5.47;4.97;;;39.30;40.90;;;39.90;27.16;95003.09;5071628;28;20227;-60
2023/08/25 10:01:50;;;;;;;6.18;5.57;;;39.10;41.40;;;39.72;27.42;94996.78;5067982;28;20199;-60
2023/08/25 10:04:18;;;;;;;9.75;5.55;;;39.00;41.60;;;39.67;26.89;94989.47;5075347;28;20236;-59
2023/08/25 10:06:45;;;;;;;7.68;5.68;;;38.90;41.70;;;39.59;26.95;94993.84;5070458;28;20227;-56
2023/08/25 10:09:12;;;;;;;7.30;4.47;;;38.80;41.80;;;39.56;27.61;94988.19;5073442;28;20224;-57
2023/08/25 10:11:41;;;;;;;6.03;5.47;;;38.70;42.20;;;39.64;27.81;94986.56;5077968;28;20221;-58
2023/08/25 10:14:11;;;;;;;10.52;6.30;;;38.70;42.40;;;39.82;27.12;94985.44;5073077;28;20273;-59